HYC weather

Wycombe Air Park
High Wycombe, England, United Kingdom

Public forecast

Using degrees Celsius for public forecast. Weather courtesy of forecast.io.

METAR (pilot weather report)

Closest report is RAF Benson, 10.7 nm (19.9 km) W. Retrieved 2019/03/19 06:50 UTC (43 minutes ago):

EGUB 190650Z 17004KT 9999 SCT008 BKN023 07/06 Q1026 GRN TEMPO BKN020 WHT

TAF (pilot weather forecast)

Forecast is more than 12 hours old.

Closest forecast is RAF Benson, 10.7 nm (19.9 km) W. Retrieved 2011/07/01 18:06 UTC (8 years ago):

TAF EGUB 302352Z 3018/0102 CNL